sensor_id;sensor_type;location;lat;lon;timestamp;temperature;humidity
6114;DHT22;3087;48.392;10.836;2023-02-13T00:00:10;3.70;99.90
6114;DHT22;3087;48.392;10.836;2023-02-13T00:02:36;2.80;99.90
6114;DHT22;3087;48.392;10.836;2023-02-13T00:05:02;2.80;99.90
6114;DHT22;3087;48.392;10.836;2023-02-13T00:07:27;2.80;99.90
6114;DHT22;3087;48.392;10.836;2023-02-13T00:09:53;2.90;99.90
6114;DHT22;3087;48.392;10.836;2023-02-13T00:12:19;3.00;99.90
6114;DHT22;3087;48.392;10.836;2023-02-13T00:14:44;3.10;99.90
6114;DHT22;3087;48.392;10.836;2023-02-13T00:17:10;3.20;99.90
6114;DHT22;3087;48.392;10.836;2023-02-13T00:19:35;3.10;99.90
6114;DHT22;3087;48.392;10.836;2023-02-13T00:22:01;4.40;99.90
6114;DHT22;3087;48.392;10.836;2023-02-13T00:24:26;4.60;99.90
6114;DHT22;3087;48.392;10.836;2023-02-13T00:26:52;3.10;99.90
6114;DHT22;3087;48.392;10.836;2023-02-13T00:29:18;3.10;99.90
6114;DHT22;3087;48.392;10.836;2023-02-13T00:31:44;3.20;99.90
6114;DHT22;3087;48.392;10.836;2023-02-13T00:34:10;4.30;99.90
6114;DHT22;3087;48.392;10.836;2023-02-13T00:36:36;3.30;99.90
6114;DHT22;3087;48.392;10.836;2023-02-13T00:39:01;3.50;99.90
6114;DHT22;3087;48.392;10.836;2023-02-13T00:41:29;3.40;99.90
6114;DHT22;3087;48.392;10.836;2023-02-13T00:43:55;3.30;99.90
6114;DHT22;3087;48.392;10.836;2023-02-13T00:46:20;3.30;99.90
6114;DHT22;3087;48.392;10.836;2023-02-13T00:48:46;3.30;99.90
6114;DHT22;3087;48.392;10.836;2023-02-13T00:51:12;3.50;99.90
6114;DHT22;3087;48.392;10.836;2023-02-13T00:53:38;3.20;99.90
6114;DHT22;3087;48.392;10.836;2023-02-13T00:56:05;3.20;99.90
6114;DHT22;3087;48.392;10.836;2023-02-13T00:58:30;3.10;99.90
6114;DHT22;3087;48.392;10.836;2023-02-13T01:00:56;3.20;99.90
6114;DHT22;3087;48.392;10.836;2023-02-13T01:03:22;4.10;99.90
6114;DHT22;3087;48.392;10.836;2023-02-13T01:05:48;3.20;99.90
6114;DHT22;3087;48.392;10.836;2023-02-13T01:08:15;3.20;99.90
6114;DHT22;3087;48.392;10.836;2023-02-13T01:10:42;4.80;99.90
6114;DHT22;3087;48.392;10.836;2023-02-13T01:13:08;5.60;99.90
6114;DHT22;3087;48.392;10.836;2023-02-13T01:15:35;3.20;99.90
6114;DHT22;3087;48.392;10.836;2023-02-13T01:18:01;3.20;99.90
6114;DHT22;3087;48.392;10.836;2023-02-13T01:20:27;3.00;99.90
6114;DHT22;3087;48.392;10.836;2023-02-13T01:22:54;3.00;99.90
6114;DHT22;3087;48.392;10.836;2023-02-13T01:25:20;3.00;99.90
6114;DHT22;3087;48.392;10.836;2023-02-13T01:27:46;2.90;99.90
6114;DHT22;3087;48.392;10.836;2023-02-13T01:30:12;4.40;99.90
6114;DHT22;3087;48.392;10.836;2023-02-13T01:32:39;3.10;99.90
6114;DHT22;3087;48.392;10.836;2023-02-13T01:35:06;3.30;99.90
6114;DHT22;3087;48.392;10.836;2023-02-13T01:37:32;3.50;99.90
6114;DHT22;3087;48.392;10.836;2023-02-13T01:39:58;3.70;99.90
6114;DHT22;3087;48.392;10.836;2023-02-13T01:42:29;3.70;99.90
6114;DHT22;3087;48.392;10.836;2023-02-13T01:45:00;3.80;99.90
6114;DHT22;3087;48.392;10.836;2023-02-13T01:47:39;3.90;99.90
6114;DHT22;3087;48.392;10.836;2023-02-13T01:50:10;4.00;99.90
6114;DHT22;3087;48.392;10.836;2023-02-13T01:52:40;4.00;99.90
6114;DHT22;3087;48.392;10.836;2023-02-13T01:55:07;3.70;99.90
6114;DHT22;3087;48.392;10.836;2023-02-13T01:57:33;3.50;99.90
6114;DHT22;3087;48.392;10.836;2023-02-13T02:00:11;5.50;99.90
6114;DHT22;3087;48.392;10.836;2023-02-13T02:02:42;3.50;99.90
6114;DHT22;3087;48.392;10.836;2023-02-13T02:05:09;3.50;99.90
6114;DHT22;3087;48.392;10.836;2023-02-13T02:07:37;3.70;99.90
6114;DHT22;3087;48.392;10.836;2023-02-13T02:10:16;3.60;99.90
6114;DHT22;3087;48.392;10.836;2023-02-13T02:12:49;3.50;99.90
6114;DHT22;3087;48.392;10.836;2023-02-13T02:15:17;3.50;99.90
6114;DHT22;3087;48.392;10.836;2023-02-13T02:17:42;3.50;99.90
6114;DHT22;3087;48.392;10.836;2023-02-13T02:42:59;3.30;99.90
6114;DHT22;3087;48.392;10.836;2023-02-13T02:45:51;3.30;99.90
6114;DHT22;3087;48.392;10.836;2023-02-13T02:48:34;3.20;99.90
6114;DHT22;3087;48.392;10.836;2023-02-13T02:54:26;5.40;99.90
6114;DHT22;3087;48.392;10.836;2023-02-13T02:57:22;3.00;99.90
6114;DHT22;3087;48.392;10.836;2023-02-13T02:59:50;3.10;99.90
6114;DHT22;3087;48.392;10.836;2023-02-13T03:02:35;3.30;99.90
6114;DHT22;3087;48.392;10.836;2023-02-13T03:05:23;3.10;99.90
6114;DHT22;3087;48.392;10.836;2023-02-13T03:08:10;3.00;99.90
6114;DHT22;3087;48.392;10.836;2023-02-13T03:10:37;3.00;99.90
6114;DHT22;3087;48.392;10.836;2023-02-13T03:13:40;3.00;99.90
6114;DHT22;3087;48.392;10.836;2023-02-13T03:16:13;2.90;99.90
6114;DHT22;3087;48.392;10.836;2023-02-13T03:18:58;2.90;99.90
6114;DHT22;3087;48.392;10.836;2023-02-13T03:21:58;2.90;99.90
6114;DHT22;3087;48.392;10.836;2023-02-13T03:27:44;3.00;99.90
6114;DHT22;3087;48.392;10.836;2023-02-13T03:39:11;3.40;99.90
6114;DHT22;3087;48.392;10.836;2023-02-13T03:41:47;3.80;99.90
6114;DHT22;3087;48.392;10.836;2023-02-13T03:46:57;3.20;99.90
6114;DHT22;3087;48.392;10.836;2023-02-13T03:49:46;3.20;99.90
6114;DHT22;3087;48.392;10.836;2023-02-13T03:52:49;3.30;99.90
6114;DHT22;3087;48.392;10.836;2023-02-13T03:55:18;3.30;99.90
6114;DHT22;3087;48.392;10.836;2023-02-13T03:58:08;3.30;99.90
6114;DHT22;3087;48.392;10.836;2023-02-13T04:00:56;3.40;99.90
6114;DHT22;3087;48.392;10.836;2023-02-13T04:06:22;4.60;99.90
6114;DHT22;3087;48.392;10.836;2023-02-13T04:08:51;3.30;99.90
6114;DHT22;3087;48.392;10.836;2023-02-13T04:11:34;3.40;99.90
6114;DHT22;3087;48.392;10.836;2023-02-13T04:14:14;3.40;99.90
6114;DHT22;3087;48.392;10.836;2023-02-13T04:16:46;3.70;99.90
6114;DHT22;3087;48.392;10.836;2023-02-13T04:19:13;3.50;99.90
6114;DHT22;3087;48.392;10.836;2023-02-13T04:21:39;4.40;99.90
6114;DHT22;3087;48.392;10.836;2023-02-13T04:24:06;3.20;99.90
6114;DHT22;3087;48.392;10.836;2023-02-13T04:26:38;3.20;99.90
6114;DHT22;3087;48.392;10.836;2023-02-13T04:29:05;3.30;99.90
6114;DHT22;3087;48.392;10.836;2023-02-13T04:31:30;3.20;99.90
6114;DHT22;3087;48.392;10.836;2023-02-13T04:33:56;3.30;99.90
6114;DHT22;3087;48.392;10.836;2023-02-13T04:36:22;3.30;99.90
6114;DHT22;3087;48.392;10.836;2023-02-13T04:38:48;3.50;99.90
6114;DHT22;3087;48.392;10.836;2023-02-13T04:41:14;3.20;99.90
6114;DHT22;3087;48.392;10.836;2023-02-13T04:43:40;3.10;99.90
6114;DHT22;3087;48.392;10.836;2023-02-13T04:46:06;3.70;99.90
6114;DHT22;3087;48.392;10.836;2023-02-13T04:48:31;2.80;99.90
6114;DHT22;3087;48.392;10.836;2023-02-13T04:50:57;2.90;99.90
6114;DHT22;3087;48.392;10.836;2023-02-13T04:53:22;3.00;99.90
6114;DHT22;3087;48.392;10.836;2023-02-13T04:55:48;3.00;99.90
6114;DHT22;3087;48.392;10.836;2023-02-13T04:58:14;4.20;99.90
6114;DHT22;3087;48.392;10.836;2023-02-13T05:00:39;3.00;99.90
6114;DHT22;3087;48.392;10.836;2023-02-13T05:03:06;4.30;99.90
6114;DHT22;3087;48.392;10.836;2023-02-13T05:05:33;2.90;99.90
6114;DHT22;3087;48.392;10.836;2023-02-13T05:07:58;2.90;99.90
6114;DHT22;3087;48.392;10.836;2023-02-13T05:10:24;3.00;99.90
6114;DHT22;3087;48.392;10.836;2023-02-13T05:12:49;3.10;99.90
6114;DHT22;3087;48.392;10.836;2023-02-13T05:15:15;4.20;99.90
6114;DHT22;3087;48.392;10.836;2023-02-13T05:17:44;3.30;99.90
6114;DHT22;3087;48.392;10.836;2023-02-13T05:20:11;3.40;99.90
6114;DHT22;3087;48.392;10.836;2023-02-13T05:22:45;3.40;99.90
6114;DHT22;3087;48.392;10.836;2023-02-13T05:25:30;3.50;99.90
6114;DHT22;3087;48.392;10.836;2023-02-13T05:27:56;4.00;99.90
6114;DHT22;3087;48.392;10.836;2023-02-13T05:30:22;4.80;99.90
6114;DHT22;3087;48.392;10.836;2023-02-13T05:32:48;3.20;99.90
6114;DHT22;3087;48.392;10.836;2023-02-13T05:35:19;3.10;99.90
6114;DHT22;3087;48.392;10.836;2023-02-13T05:37:45;3.00;99.90
6114;DHT22;3087;48.392;10.836;2023-02-13T05:40:11;3.00;99.90
6114;DHT22;3087;48.392;10.836;2023-02-13T05:42:38;2.90;99.90
6114;DHT22;3087;48.392;10.836;2023-02-13T05:45:04;2.90;99.90
6114;DHT22;3087;48.392;10.836;2023-02-13T05:47:30;2.80;99.90
6114;DHT22;3087;48.392;10.836;2023-02-13T05:49:55;2.70;99.90
6114;DHT22;3087;48.392;10.836;2023-02-13T05:52:21;2.60;99.90
6114;DHT22;3087;48.392;10.836;2023-02-13T05:54:47;2.70;99.90
6114;DHT22;3087;48.392;10.836;2023-02-13T05:57:12;2.60;99.90
6114;DHT22;3087;48.392;10.836;2023-02-13T05:59:38;3.40;99.90
6114;DHT22;3087;48.392;10.836;2023-02-13T06:02:03;2.60;99.90
6114;DHT22;3087;48.392;10.836;2023-02-13T06:04:29;2.60;99.90
6114;DHT22;3087;48.392;10.836;2023-02-13T06:06:54;3.50;99.90
6114;DHT22;3087;48.392;10.836;2023-02-13T06:09:20;2.70;99.90
6114;DHT22;3087;48.392;10.836;2023-02-13T06:11:46;2.80;99.90
6114;DHT22;3087;48.392;10.836;2023-02-13T06:14:12;3.00;99.90
6114;DHT22;3087;48.392;10.836;2023-02-13T06:16:39;3.00;99.90
6114;DHT22;3087;48.392;10.836;2023-02-13T06:19:05;3.10;99.90
6114;DHT22;3087;48.392;10.836;2023-02-13T06:21:31;3.20;99.90
6114;DHT22;3087;48.392;10.836;2023-02-13T06:24:04;3.20;99.90
6114;DHT22;3087;48.392;10.836;2023-02-13T06:26:29;3.30;99.90
6114;DHT22;3087;48.392;10.836;2023-02-13T06:28:55;3.50;99.90
6114;DHT22;3087;48.392;10.836;2023-02-13T06:31:20;3.50;99.90
6114;DHT22;3087;48.392;10.836;2023-02-13T06:33:46;3.90;99.90
6114;DHT22;3087;48.392;10.836;2023-02-13T06:36:12;3.40;99.90
6114;DHT22;3087;48.392;10.836;2023-02-13T06:38:37;4.70;99.90
6114;DHT22;3087;48.392;10.836;2023-02-13T06:41:03;3.70;99.90
6114;DHT22;3087;48.392;10.836;2023-02-13T06:43:29;3.60;99.90
6114;DHT22;3087;48.392;10.836;2023-02-13T06:45:55;3.70;99.90
6114;DHT22;3087;48.392;10.836;2023-02-13T06:48:20;4.50;99.90
6114;DHT22;3087;48.392;10.836;2023-02-13T06:50:46;3.50;99.90
6114;DHT22;3087;48.392;10.836;2023-02-13T06:53:12;5.00;99.90
6114;DHT22;3087;48.392;10.836;2023-02-13T06:55:37;4.50;99.90
6114;DHT22;3087;48.392;10.836;2023-02-13T06:58:06;3.20;99.90
6114;DHT22;3087;48.392;10.836;2023-02-13T07:00:31;3.20;99.90
6114;DHT22;3087;48.392;10.836;2023-02-13T07:03:04;3.10;99.90
6114;DHT22;3087;48.392;10.836;2023-02-13T07:05:31;3.10;99.90
6114;DHT22;3087;48.392;10.836;2023-02-13T07:07:57;3.00;99.90
6114;DHT22;3087;48.392;10.836;2023-02-13T07:10:23;3.10;99.90
6114;DHT22;3087;48.392;10.836;2023-02-13T07:12:48;3.00;99.90
6114;DHT22;3087;48.392;10.836;2023-02-13T07:15:15;3.00;99.90
6114;DHT22;3087;48.392;10.836;2023-02-13T07:17:40;3.10;99.90
6114;DHT22;3087;48.392;10.836;2023-02-13T07:20:07;3.30;99.90
6114;DHT22;3087;48.392;10.836;2023-02-13T07:22:33;3.50;99.90
6114;DHT22;3087;48.392;10.836;2023-02-13T07:24:59;4.00;99.90
6114;DHT22;3087;48.392;10.836;2023-02-13T07:27:26;4.60;99.90
6114;DHT22;3087;48.392;10.836;2023-02-13T07:29:54;4.00;99.90
6114;DHT22;3087;48.392;10.836;2023-02-13T07:32:20;4.00;99.90
6114;DHT22;3087;48.392;10.836;2023-02-13T07:34:46;5.10;99.90
6114;DHT22;3087;48.392;10.836;2023-02-13T07:37:12;5.00;99.90
6114;DHT22;3087;48.392;10.836;2023-02-13T07:39:37;4.20;99.90
6114;DHT22;3087;48.392;10.836;2023-02-13T07:42:04;4.30;99.90
6114;DHT22;3087;48.392;10.836;2023-02-13T07:44:30;4.30;99.90
6114;DHT22;3087;48.392;10.836;2023-02-13T07:46:56;4.40;99.90
6114;DHT22;3087;48.392;10.836;2023-02-13T07:49:21;4.50;99.90
6114;DHT22;3087;48.392;10.836;2023-02-13T07:51:47;4.50;99.90
6114;DHT22;3087;48.392;10.836;2023-02-13T07:54:12;4.50;99.90
6114;DHT22;3087;48.392;10.836;2023-02-13T07:56:38;5.00;99.90
6114;DHT22;3087;48.392;10.836;2023-02-13T07:59:03;4.50;99.90
6114;DHT22;3087;48.392;10.836;2023-02-13T08:01:29;4.50;99.90
6114;DHT22;3087;48.392;10.836;2023-02-13T08:03:55;4.50;99.90
6114;DHT22;3087;48.392;10.836;2023-02-13T08:06:21;4.50;99.90
6114;DHT22;3087;48.392;10.836;2023-02-13T08:08:46;4.50;99.90
6114;DHT22;3087;48.392;10.836;2023-02-13T08:11:25;4.40;99.90
6114;DHT22;3087;48.392;10.836;2023-02-13T08:14:11;4.30;99.90
6114;DHT22;3087;48.392;10.836;2023-02-13T08:16:37;4.80;99.90
6114;DHT22;3087;48.392;10.836;2023-02-13T08:19:02;4.30;99.90
6114;DHT22;3087;48.392;10.836;2023-02-13T08:21:29;4.30;99.90
6114;DHT22;3087;48.392;10.836;2023-02-13T08:23:55;4.50;99.90
6114;DHT22;3087;48.392;10.836;2023-02-13T08:26:20;4.00;99.90
6114;DHT22;3087;48.392;10.836;2023-02-13T08:28:46;6.70;99.90
6114;DHT22;3087;48.392;10.836;2023-02-13T08:31:12;4.00;99.90
6114;DHT22;3087;48.392;10.836;2023-02-13T08:33:37;4.10;99.90
6114;DHT22;3087;48.392;10.836;2023-02-13T08:36:04;5.50;99.90
6114;DHT22;3087;48.392;10.836;2023-02-13T08:38:31;4.20;99.90
6114;DHT22;3087;48.392;10.836;2023-02-13T08:40:57;6.80;99.90
6114;DHT22;3087;48.392;10.836;2023-02-13T08:43:22;4.20;99.90
6114;DHT22;3087;48.392;10.836;2023-02-13T08:45:48;4.20;99.90
6114;DHT22;3087;48.392;10.836;2023-02-13T08:48:14;4.30;99.90
6114;DHT22;3087;48.392;10.836;2023-02-13T08:50:39;4.40;99.90
6114;DHT22;3087;48.392;10.836;2023-02-13T08:53:05;4.50;99.90
6114;DHT22;3087;48.392;10.836;2023-02-13T08:55:30;4.60;99.90
6114;DHT22;3087;48.392;10.836;2023-02-13T08:58:03;5.90;99.90
6114;DHT22;3087;48.392;10.836;2023-02-13T09:00:29;4.80;99.90
6114;DHT22;3087;48.392;10.836;2023-02-13T09:02:59;6.80;99.90
6114;DHT22;3087;48.392;10.836;2023-02-13T09:05:25;5.50;99.90
6114;DHT22;3087;48.392;10.836;2023-02-13T09:07:51;5.20;99.90
6114;DHT22;3087;48.392;10.836;2023-02-13T09:10:17;4.80;99.90
6114;DHT22;3087;48.392;10.836;2023-02-13T09:12:42;4.90;99.90
6114;DHT22;3087;48.392;10.836;2023-02-13T09:15:08;4.90;99.90
6114;DHT22;3087;48.392;10.836;2023-02-13T09:17:34;4.60;99.90
6114;DHT22;3087;48.392;10.836;2023-02-13T09:20:00;4.70;99.90
6114;DHT22;3087;48.392;10.836;2023-02-13T09:22:25;5.10;99.90
6114;DHT22;3087;48.392;10.836;2023-02-13T09:24:51;4.70;99.90
6114;DHT22;3087;48.392;10.836;2023-02-13T09:27:16;4.70;99.90
6114;DHT22;3087;48.392;10.836;2023-02-13T09:29:42;4.80;99.90
6114;DHT22;3087;48.392;10.836;2023-02-13T09:32:08;4.70;99.90
6114;DHT22;3087;48.392;10.836;2023-02-13T09:34:33;4.70;99.90
6114;DHT22;3087;48.392;10.836;2023-02-13T09:36:59;5.70;99.90
6114;DHT22;3087;48.392;10.836;2023-02-13T09:39:25;4.60;99.90
6114;DHT22;3087;48.392;10.836;2023-02-13T09:41:52;4.50;99.90
6114;DHT22;3087;48.392;10.836;2023-02-13T09:44:19;5.80;99.90
6114;DHT22;3087;48.392;10.836;2023-02-13T09:47:16;4.40;99.90
6114;DHT22;3087;48.392;10.836;2023-02-13T09:49:47;4.40;99.90
6114;DHT22;3087;48.392;10.836;2023-02-13T09:52:14;4.30;99.90
6114;DHT22;3087;48.392;10.836;2023-02-13T09:54:40;4.60;99.90
6114;DHT22;3087;48.392;10.836;2023-02-13T09:57:34;4.10;99.90
6114;DHT22;3087;48.392;10.836;2023-02-13T10:03:05;4.00;99.90
6114;DHT22;3087;48.392;10.836;2023-02-13T10:05:52;4.20;99.90
6114;DHT22;3087;48.392;10.836;2023-02-13T10:08:33;4.20;99.90
6114;DHT22;3087;48.392;10.836;2023-02-13T10:16:37;3.90;99.90
6114;DHT22;3087;48.392;10.836;2023-02-13T10:22:14;3.60;99.90
6114;DHT22;3087;48.392;10.836;2023-02-13T10:27:39;3.80;99.90
6114;DHT22;3087;48.392;10.836;2023-02-13T10:32:57;3.80;99.90
6114;DHT22;3087;48.392;10.836;2023-02-13T10:35:49;3.90;99.90
6114;DHT22;3087;48.392;10.836;2023-02-13T10:38:19;4.00;99.90
6114;DHT22;3087;48.392;10.836;2023-02-13T10:44:05;4.30;99.90
6114;DHT22;3087;48.392;10.836;2023-02-13T10:55:04;4.30;99.90
6114;DHT22;3087;48.392;10.836;2023-02-13T11:02:31;4.30;99.90
6114;DHT22;3087;48.392;10.836;2023-02-13T11:05:16;4.40;99.90
6114;DHT22;3087;48.392;10.836;2023-02-13T11:07:44;4.30;99.90
6114;DHT22;3087;48.392;10.836;2023-02-13T11:10:23;4.30;99.90
6114;DHT22;3087;48.392;10.836;2023-02-13T11:12:49;4.20;99.90
6114;DHT22;3087;48.392;10.836;2023-02-13T11:15:26;4.20;99.90
6114;DHT22;3087;48.392;10.836;2023-02-13T11:17:55;4.40;99.90
6114;DHT22;3087;48.392;10.836;2023-02-13T11:20:27;4.50;99.90
6114;DHT22;3087;48.392;10.836;2023-02-13T11:22:54;5.20;99.90
6114;DHT22;3087;48.392;10.836;2023-02-13T11:25:27;4.80;99.90
6114;DHT22;3087;48.392;10.836;2023-02-13T11:28:09;4.80;99.90
6114;DHT22;3087;48.392;10.836;2023-02-13T11:30:36;4.80;99.90
6114;DHT22;3087;48.392;10.836;2023-02-13T11:33:17;4.70;99.90
6114;DHT22;3087;48.392;10.836;2023-02-13T11:35:46;4.60;99.90
6114;DHT22;3087;48.392;10.836;2023-02-13T11:40:41;4.50;99.90
6114;DHT22;3087;48.392;10.836;2023-02-13T11:43:17;5.40;99.90
6114;DHT22;3087;48.392;10.836;2023-02-13T11:45:44;4.60;99.90
6114;DHT22;3087;48.392;10.836;2023-02-13T11:48:19;4.70;99.90
6114;DHT22;3087;48.392;10.836;2023-02-13T11:50:53;4.90;99.90
6114;DHT22;3087;48.392;10.836;2023-02-13T11:53:30;4.80;99.90
6114;DHT22;3087;48.392;10.836;2023-02-13T11:56:10;4.80;99.90
6114;DHT22;3087;48.392;10.836;2023-02-13T11:58:38;4.60;99.90
6114;DHT22;3087;48.392;10.836;2023-02-13T12:04:15;4.50;99.90
6114;DHT22;3087;48.392;10.836;2023-02-13T12:06:58;4.40;99.90
6114;DHT22;3087;48.392;10.836;2023-02-13T12:09:24;4.30;99.90
6114;DHT22;3087;48.392;10.836;2023-02-13T12:11:55;4.20;99.90
6114;DHT22;3087;48.392;10.836;2023-02-13T12:14:25;4.20;99.90
6114;DHT22;3087;48.392;10.836;2023-02-13T12:17:07;4.20;99.90
6114;DHT22;3087;48.392;10.836;2023-02-13T12:19:44;4.10;99.90
6114;DHT22;3087;48.392;10.836;2023-02-13T12:23:11;4.10;99.90
6114;DHT22;3087;48.392;10.836;2023-02-13T12:37:45;4.10;99.90
6114;DHT22;3087;48.392;10.836;2023-02-13T12:46:36;4.30;99.90
6114;DHT22;3087;48.392;10.836;2023-02-13T12:51:55;4.50;99.90
6114;DHT22;3087;48.392;10.836;2023-02-13T13:13:27;5.00;99.90
6114;DHT22;3087;48.392;10.836;2023-02-13T13:16:23;4.90;99.90
6114;DHT22;3087;48.392;10.836;2023-02-13T13:26:44;4.60;99.90
6114;DHT22;3087;48.392;10.836;2023-02-13T13:29:23;4.80;99.90
6114;DHT22;3087;48.392;10.836;2023-02-13T13:31:57;4.90;99.90
6114;DHT22;3087;48.392;10.836;2023-02-13T13:34:26;4.80;99.90
6114;DHT22;3087;48.392;10.836;2023-02-13T13:43:02;4.70;99.90
6114;DHT22;3087;48.392;10.836;2023-02-13T13:45:35;5.00;99.90
6114;DHT22;3087;48.392;10.836;2023-02-13T13:50:34;5.30;99.90
6114;DHT22;3087;48.392;10.836;2023-02-13T13:53:18;5.40;99.90
6114;DHT22;3087;48.392;10.836;2023-02-13T14:03:43;5.30;99.90
6114;DHT22;3087;48.392;10.836;2023-02-13T14:06:11;5.30;99.90
6114;DHT22;3087;48.392;10.836;2023-02-13T14:11:33;5.30;99.90
6114;DHT22;3087;48.392;10.836;2023-02-13T14:14:00;5.00;99.90
6114;DHT22;3087;48.392;10.836;2023-02-13T14:16:43;5.00;99.90
6114;DHT22;3087;48.392;10.836;2023-02-13T14:19:36;5.10;99.90
6114;DHT22;3087;48.392;10.836;2023-02-13T14:24:49;5.10;99.90
6114;DHT22;3087;48.392;10.836;2023-02-13T14:27:21;4.90;99.90
6114;DHT22;3087;48.392;10.836;2023-02-13T14:29:48;4.70;99.90
6114;DHT22;3087;48.392;10.836;2023-02-13T14:34:51;4.40;99.90
6114;DHT22;3087;48.392;10.836;2023-02-13T14:37:20;4.50;99.90
6114;DHT22;3087;48.392;10.836;2023-02-13T14:42:52;4.30;99.90
6114;DHT22;3087;48.392;10.836;2023-02-13T14:45:46;4.30;99.90
6114;DHT22;3087;48.392;10.836;2023-02-13T14:48:13;4.50;99.90
6114;DHT22;3087;48.392;10.836;2023-02-13T14:50:46;4.60;99.90
6114;DHT22;3087;48.392;10.836;2023-02-13T14:53:25;4.70;99.90
6114;DHT22;3087;48.392;10.836;2023-02-13T14:56:07;4.70;99.90
6114;DHT22;3087;48.392;10.836;2023-02-13T14:58:35;4.60;99.90
6114;DHT22;3087;48.392;10.836;2023-02-13T15:03:48;4.50;99.90
6114;DHT22;3087;48.392;10.836;2023-02-13T15:06:41;4.50;99.90
6114;DHT22;3087;48.392;10.836;2023-02-13T15:09:36;4.30;99.90
6114;DHT22;3087;48.392;10.836;2023-02-13T15:14:51;3.90;99.90
6114;DHT22;3087;48.392;10.836;2023-02-13T15:17:25;6.20;99.90
6114;DHT22;3087;48.392;10.836;2023-02-13T15:20:06;3.70;99.90
6114;DHT22;3087;48.392;10.836;2023-02-13T15:22:44;3.70;99.90
6114;DHT22;3087;48.392;10.836;2023-02-13T15:25:24;3.80;99.90
6114;DHT22;3087;48.392;10.836;2023-02-13T15:27:52;2.60;99.90
6114;DHT22;3087;48.392;10.836;2023-02-13T15:30:30;3.80;99.90
6114;DHT22;3087;48.392;10.836;2023-02-13T15:33:00;3.70;99.90
6114;DHT22;3087;48.392;10.836;2023-02-13T15:35:34;3.80;99.90
6114;DHT22;3087;48.392;10.836;2023-02-13T15:40:49;3.80;99.90
6114;DHT22;3087;48.392;10.836;2023-02-13T15:43:40;3.70;99.90
6114;DHT22;3087;48.392;10.836;2023-02-13T15:48:45;3.60;99.90
6114;DHT22;3087;48.392;10.836;2023-02-13T15:51:22;3.60;99.90
6114;DHT22;3087;48.392;10.836;2023-02-13T15:53:58;3.60;99.90
6114;DHT22;3087;48.392;10.836;2023-02-13T15:56:24;3.80;99.90
6114;DHT22;3087;48.392;10.836;2023-02-13T15:58:51;4.00;99.90
6114;DHT22;3087;48.392;10.836;2023-02-13T16:01:17;4.00;99.90
6114;DHT22;3087;48.392;10.836;2023-02-13T16:03:46;3.90;99.90
6114;DHT22;3087;48.392;10.836;2023-02-13T16:06:14;4.00;99.90
6114;DHT22;3087;48.392;10.836;2023-02-13T16:08:45;3.80;99.90
6114;DHT22;3087;48.392;10.836;2023-02-13T16:14:41;3.60;99.90
6114;DHT22;3087;48.392;10.836;2023-02-13T16:16:52;3.50;99.90
6114;DHT22;3087;48.392;10.836;2023-02-13T16:19:24;3.50;99.90
6114;DHT22;3087;48.392;10.836;2023-02-13T16:21:51;3.40;99.90
6114;DHT22;3087;48.392;10.836;2023-02-13T16:24:18;3.30;99.90
6114;DHT22;3087;48.392;10.836;2023-02-13T16:26:44;3.40;99.90
6114;DHT22;3087;48.392;10.836;2023-02-13T16:29:14;3.50;99.90
6114;DHT22;3087;48.392;10.836;2023-02-13T16:31:43;3.70;99.90
6114;DHT22;3087;48.392;10.836;2023-02-13T16:34:29;3.70;99.90
6114;DHT22;3087;48.392;10.836;2023-02-13T16:36:55;3.60;99.90
6114;DHT22;3087;48.392;10.836;2023-02-13T16:39:30;3.70;99.90
6114;DHT22;3087;48.392;10.836;2023-02-13T16:41:58;3.70;99.90
6114;DHT22;3087;48.392;10.836;2023-02-13T16:44:27;3.70;99.90
6114;DHT22;3087;48.392;10.836;2023-02-13T16:49:22;3.90;99.90
6114;DHT22;3087;48.392;10.836;2023-02-13T16:51:53;3.90;99.90
6114;DHT22;3087;48.392;10.836;2023-02-13T16:54:26;3.90;99.90
6114;DHT22;3087;48.392;10.836;2023-02-13T16:57:15;3.80;99.90
6114;DHT22;3087;48.392;10.836;2023-02-13T17:02:37;3.90;99.90
6114;DHT22;3087;48.392;10.836;2023-02-13T17:07:40;3.90;99.90
6114;DHT22;3087;48.392;10.836;2023-02-13T17:10:30;4.00;99.90
6114;DHT22;3087;48.392;10.836;2023-02-13T17:13:05;4.00;99.90
6114;DHT22;3087;48.392;10.836;2023-02-13T17:15:42;4.00;99.90
6114;DHT22;3087;48.392;10.836;2023-02-13T17:18:08;4.60;99.90
6114;DHT22;3087;48.392;10.836;2023-02-13T17:20:35;3.90;99.90
6114;DHT22;3087;48.392;10.836;2023-02-13T17:23:04;3.80;99.90
6114;DHT22;3087;48.392;10.836;2023-02-13T17:25:33;3.60;99.90
6114;DHT22;3087;48.392;10.836;2023-02-13T17:28:01;4.20;99.90
6114;DHT22;3087;48.392;10.836;2023-02-13T17:30:32;3.10;99.90
6114;DHT22;3087;48.392;10.836;2023-02-13T17:33:02;3.30;99.90
6114;DHT22;3087;48.392;10.836;2023-02-13T17:35:28;3.30;99.90
6114;DHT22;3087;48.392;10.836;2023-02-13T17:37:53;4.60;99.90
6114;DHT22;3087;48.392;10.836;2023-02-13T17:40:22;5.60;99.90
6114;DHT22;3087;48.392;10.836;2023-02-13T17:42:51;3.30;99.90
6114;DHT22;3087;48.392;10.836;2023-02-13T17:45:20;5.00;99.90
6114;DHT22;3087;48.392;10.836;2023-02-13T17:47:46;3.80;99.90
6114;DHT22;3087;48.392;10.836;2023-02-13T17:50:12;5.10;99.90
6114;DHT22;3087;48.392;10.836;2023-02-13T17:52:39;3.50;99.90
6114;DHT22;3087;48.392;10.836;2023-02-13T17:55:15;3.30;99.90
6114;DHT22;3087;48.392;10.836;2023-02-13T17:57:41;4.10;99.90
6114;DHT22;3087;48.392;10.836;2023-02-13T18:00:07;3.10;99.90
6114;DHT22;3087;48.392;10.836;2023-02-13T18:02:33;3.10;99.90
6114;DHT22;3087;48.392;10.836;2023-02-13T18:04:58;3.20;99.90
6114;DHT22;3087;48.392;10.836;2023-02-13T18:07:24;2.90;99.90
6114;DHT22;3087;48.392;10.836;2023-02-13T18:09:50;2.80;99.90
6114;DHT22;3087;48.392;10.836;2023-02-13T18:12:24;2.80;99.90
6114;DHT22;3087;48.392;10.836;2023-02-13T18:14:51;2.90;99.90
6114;DHT22;3087;48.392;10.836;2023-02-13T18:17:18;2.80;99.90
6114;DHT22;3087;48.392;10.836;2023-02-13T18:19:45;3.20;99.90
6114;DHT22;3087;48.392;10.836;2023-02-13T18:22:11;4.80;99.90
6114;DHT22;3087;48.392;10.836;2023-02-13T18:24:39;3.00;99.90
6114;DHT22;3087;48.392;10.836;2023-02-13T18:27:06;3.10;99.90
6114;DHT22;3087;48.392;10.836;2023-02-13T18:29:36;3.50;99.90
6114;DHT22;3087;48.392;10.836;2023-02-13T18:32:03;3.10;99.90
6114;DHT22;3087;48.392;10.836;2023-02-13T18:34:30;3.10;99.90
6114;DHT22;3087;48.392;10.836;2023-02-13T18:36:55;3.10;99.90
6114;DHT22;3087;48.392;10.836;2023-02-13T18:39:22;3.00;99.90
6114;DHT22;3087;48.392;10.836;2023-02-13T18:41:48;2.90;99.90
6114;DHT22;3087;48.392;10.836;2023-02-13T18:44:13;2.90;99.90
6114;DHT22;3087;48.392;10.836;2023-02-13T18:46:39;2.80;99.90
6114;DHT22;3087;48.392;10.836;2023-02-13T18:49:05;2.70;99.90
6114;DHT22;3087;48.392;10.836;2023-02-13T18:51:30;2.70;99.90
6114;DHT22;3087;48.392;10.836;2023-02-13T18:53:56;2.60;99.90
6114;DHT22;3087;48.392;10.836;2023-02-13T18:56:22;2.60;99.90
6114;DHT22;3087;48.392;10.836;2023-02-13T18:58:49;3.70;99.90
6114;DHT22;3087;48.392;10.836;2023-02-13T19:01:17;2.60;99.90
6114;DHT22;3087;48.392;10.836;2023-02-13T19:03:45;3.90;99.90
6114;DHT22;3087;48.392;10.836;2023-02-13T19:06:14;2.90;99.90
6114;DHT22;3087;48.392;10.836;2023-02-13T19:08:39;3.10;99.90
6114;DHT22;3087;48.392;10.836;2023-02-13T19:11:13;4.40;99.90
6114;DHT22;3087;48.392;10.836;2023-02-13T19:13:40;3.70;99.90
6114;DHT22;3087;48.392;10.836;2023-02-13T19:16:13;3.70;99.90
6114;DHT22;3087;48.392;10.836;2023-02-13T19:18:42;3.40;99.90
6114;DHT22;3087;48.392;10.836;2023-02-13T19:21:08;3.30;99.90